Joy — V2EI9 — position and weather

sailwx.info

Track history (hours):
 
Tides and Currents Weather Stations Pressure Air Temp Water Temp Dewpoint Dewpoint Depression Visibility Wind Speed Wind Dir Waves Ship Positions

Joy

Last reported at 2017-Jan-20 15:12 UTC. Time now 2017-Jan-20 16:01 UTC.
Position N 59°34' E 027°27'.

Length 104 m; draft 3.7 m.

MMSI: 305444000.

Date/timePositionNaut miles runAvg speedWind from/ knotsBaromVisibWave heightAir tempDewpointWater temp
2017-Jan-20 15:12N 59°34' E 027°27'94 9.5
2017-Jan-20 05:20N 59°43' E 024°21'8 9.9
2017-Jan-20 04:33N 59°41' E 024°07'10 9.8
2017-Jan-20 03:32N 59°38' E 023°48'10 9.9
2017-Jan-20 02:29N 59°35' E 023°28'357 9.6
2017-Jan-18 13:25N 55°35' E 015°15'910.2
2017-Jan-18 12:33N 55°31' E 015°01'1010.1
2017-Jan-18 11:33N 55°26' E 014°46'10 9.7
2017-Jan-18 10:33N 55°19' E 014°34'1010.0
2017-Jan-18 09:33N 55°11' E 014°23'1010.3
2017-Jan-18 08:33N 55°03' E 014°11'1010.2
2017-Jan-18 07:32N 54°59' E 013°55'4010.1
2017-Jan-18 03:33N 54°46' E 012°49'10 9.9
2017-Jan-18 02:33N 54°41' E 012°34'1010.2
2017-Jan-18 01:33N 54°36' E 012°19'18 8.6
2017-Jan-17 23:28N 54°23' E 011°58'3010.4
2017-Jan-17 20:33N 54°08' E 011°13'  
2017-Jan-12 09:34N 54°24' E 011°26'10 9.6
2017-Jan-12 08:34N 54°33' E 011°20'1010.5
2017-Jan-12 07:33N 54°35' E 011°02'1110.5
2017-Jan-12 06:33N 54°34' E 010°44'57 6.2
2017-Jan-11 21:22N 54°05' E 009°19'6 8.0
2017-Jan-11 20:34N 53°58' E 009°16'7 6.6
2017-Jan-11 19:33N 53°54' E 009°09'3 2.8
2017-Jan-11 18:33N 53°53' E 009°04'7 6.7
2017-Jan-11 17:33N 53°50' E 008°53'6 5.7
2017-Jan-11 16:33N 53°52' E 008°44'6 6.0
2017-Jan-11 15:33N 53°57' E 008°38'7 7.1
2017-Jan-11 14:33N 53°59' E 008°27'8 8.1
2017-Jan-11 13:33N 53°59' E 008°13'9 8.8
2017-Jan-11 12:33N 53°58' E 007°58'13310.2
2017-Jan-10 23:32N 53°09' E 004°31'9 9.2
2017-Jan-10 22:31N 53°01' E 004°23'10 8.9
2017-Jan-10 21:21N 52°52' E 004°15'7 8.8
2017-Jan-10 20:33N 52°46' E 004°08'  
Track history (hours):
 
Tides and Currents Weather Stations Pressure Air Temp Water Temp Dewpoint Dewpoint Depression Visibility Wind Speed Wind Dir Waves Ship Positions

Joy

Last reported at 2017-Jan-20 15:12 UTC. Time now 2017-Jan-20 16:01 UTC.
Position N 59°34' E 027°27'.

Length 104 m; draft 3.7 m.

MMSI: 305444000.

Date/timePositionNaut miles runAvg speedWind from/ knotsBaromVisibWave heightAir tempDewpointWater temp
2017-Jan-20 15:12N 59°34' E 027°27'94 9.5
2017-Jan-20 05:20N 59°43' E 024°21'8 9.9
2017-Jan-20 04:33N 59°41' E 024°07'10 9.8
2017-Jan-20 03:32N 59°38' E 023°48'10 9.9
2017-Jan-20 02:29N 59°35' E 023°28'357 9.6
2017-Jan-18 13:25N 55°35' E 015°15'910.2
2017-Jan-18 12:33N 55°31' E 015°01'1010.1
2017-Jan-18 11:33N 55°26' E 014°46'10 9.7
2017-Jan-18 10:33N 55°19' E 014°34'1010.0
2017-Jan-18 09:33N 55°11' E 014°23'1010.3
2017-Jan-18 08:33N 55°03' E 014°11'1010.2
2017-Jan-18 07:32N 54°59' E 013°55'4010.1
2017-Jan-18 03:33N 54°46' E 012°49'10 9.9
2017-Jan-18 02:33N 54°41' E 012°34'1010.2
2017-Jan-18 01:33N 54°36' E 012°19'18 8.6
2017-Jan-17 23:28N 54°23' E 011°58'3010.4
2017-Jan-17 20:33N 54°08' E 011°13'  
2017-Jan-12 09:34N 54°24' E 011°26'10 9.6
2017-Jan-12 08:34N 54°33' E 011°20'1010.5
2017-Jan-12 07:33N 54°35' E 011°02'1110.5
2017-Jan-12 06:33N 54°34' E 010°44'57 6.2
2017-Jan-11 21:22N 54°05' E 009°19'6 8.0
2017-Jan-11 20:34N 53°58' E 009°16'7 6.6
2017-Jan-11 19:33N 53°54' E 009°09'3 2.8
2017-Jan-11 18:33N 53°53' E 009°04'7 6.7
2017-Jan-11 17:33N 53°50' E 008°53'6 5.7
2017-Jan-11 16:33N 53°52' E 008°44'6 6.0
2017-Jan-11 15:33N 53°57' E 008°38'7 7.1
2017-Jan-11 14:33N 53°59' E 008°27'8 8.1
2017-Jan-11 13:33N 53°59' E 008°13'9 8.8
2017-Jan-11 12:33N 53°58' E 007°58'13310.2
2017-Jan-10 23:32N 53°09' E 004°31'9 9.2
2017-Jan-10 22:31N 53°01' E 004°23'10 8.9
2017-Jan-10 21:21N 52°52' E 004°15'7 8.8
2017-Jan-10 20:33N 52°46' E 004°08'  

Dump ship's entire track history